createdAt,value
2018-03-17T00:01:13.041Z,30.07
2018-03-17T00:03:41.559Z,27.77
2018-03-17T00:06:10.022Z,28.67
2018-03-17T00:08:38.535Z,29.07
2018-03-17T00:11:06.994Z,30.50
2018-03-17T00:13:35.490Z,27.47
2018-03-17T00:16:03.961Z,29.30
2018-03-17T00:18:32.473Z,29.03
2018-03-17T00:21:00.998Z,28.17
2018-03-17T00:23:29.466Z,26.63
2018-03-17T00:25:57.966Z,27.10
2018-03-17T00:28:26.438Z,28.63
2018-03-17T00:30:54.934Z,27.87
2018-03-17T00:33:23.401Z,27.87
2018-03-17T00:35:51.899Z,27.37
2018-03-17T00:38:20.392Z,30.03
2018-03-17T00:40:48.854Z,29.10
2018-03-17T00:43:17.342Z,29.10
2018-03-17T00:45:45.830Z,31.03
2018-03-17T00:48:14.283Z,29.77
2018-03-17T00:50:42.782Z,31.87
2018-03-17T00:53:11.291Z,31.03
2018-03-17T00:55:39.780Z,31.67
2018-03-17T00:58:08.237Z,32.33
2018-03-17T01:00:36.731Z,32.53
2018-03-17T01:03:05.225Z,32.40
2018-03-17T01:05:33.721Z,31.10
2018-03-17T01:08:02.193Z,32.33
2018-03-17T01:10:30.730Z,32.37
2018-03-17T01:12:59.206Z,30.83
2018-03-17T01:15:27.703Z,30.90
2018-03-17T01:17:56.173Z,32.20
2018-03-17T01:20:24.674Z,30.47
2018-03-17T01:22:53.138Z,31.23
2018-03-17T01:25:21.631Z,31.60
2018-03-17T01:27:50.124Z,30.70
2018-03-17T01:30:18.643Z,32.70
2018-03-17T01:32:47.154Z,30.20
2018-03-17T01:35:15.606Z,29.53
2018-03-17T01:37:44.058Z,31.43
2018-03-17T01:40:12.533Z,30.90
2018-03-17T01:42:41.034Z,31.27
2018-03-17T01:45:09.498Z,30.43
2018-03-17T01:47:37.990Z,30.57
2018-03-17T01:50:06.490Z,31.27
2018-03-17T01:52:34.998Z,29.57
2018-03-17T01:55:03.481Z,30.67
2018-03-17T01:57:31.939Z,31.13
2018-03-17T02:00:00.433Z,31.63
2018-03-17T02:02:28.962Z,30.73
2018-03-17T02:04:57.489Z,30.50
2018-03-17T02:07:25.946Z,32.60
2018-03-17T02:09:54.474Z,31.97
2018-03-17T02:12:22.934Z,31.63
2018-03-17T02:14:51.437Z,32.93
2018-03-17T02:17:19.923Z,31.87
2018-03-17T02:19:48.398Z,32.63
2018-03-17T02:22:16.943Z,32.90
2018-03-17T02:24:45.394Z,33.13
2018-03-17T02:27:13.889Z,32.73
2018-03-17T02:29:42.348Z,33.10
2018-03-17T02:32:10.839Z,33.07
2018-03-17T02:34:39.383Z,32.73
2018-03-17T02:37:07.887Z,32.37
2018-03-17T02:39:36.367Z,33.90
2018-03-17T02:42:04.862Z,34.43
2018-03-17T02:44:33.367Z,38.27
2018-03-17T02:47:01.825Z,35.67
2018-03-17T02:49:30.298Z,38.27
2018-03-17T02:51:58.790Z,36.47
2018-03-17T02:54:27.243Z,36.50
2018-03-17T02:56:55.739Z,38.50
2018-03-17T02:59:24.230Z,38.97
2018-03-17T03:01:52.686Z,36.77
2018-03-17T03:04:21.196Z,36.10
2018-03-17T03:06:49.659Z,33.47
2018-03-17T03:09:18.190Z,35.10
2018-03-17T03:11:46.666Z,33.97
2018-03-17T03:14:15.163Z,32.73
2018-03-17T03:16:43.675Z,33.23
2018-03-17T03:19:12.130Z,32.20
2018-03-17T03:21:40.607Z,32.47
2018-03-17T03:24:09.107Z,35.33
2018-03-17T03:26:37.582Z,33.97
2018-03-17T03:29:06.096Z,35.40
2018-03-17T03:31:34.554Z,35.40
2018-03-17T03:34:03.094Z,35.13
2018-03-17T03:36:31.546Z,36.50
2018-03-17T03:39:00.059Z,36.50
2018-03-17T03:41:28.525Z,36.53
2018-03-17T03:43:57.018Z,36.17
2018-03-17T03:46:25.521Z,37.27
2018-03-17T03:48:53.981Z,33.17
2018-03-17T03:51:22.487Z,31.20
2018-03-17T03:53:50.942Z,31.93
2018-03-17T03:56:19.433Z,29.10
2018-03-17T03:58:47.934Z,32.33
2018-03-17T04:01:16.426Z,33.60
2018-03-17T04:03:44.926Z,32.13
2018-03-17T04:06:13.380Z,34.10
2018-03-17T04:08:41.878Z,33.83
2018-03-17T04:11:10.366Z,32.30
2018-03-17T04:13:38.862Z,34.07
2018-03-17T04:16:07.335Z,33.27
2018-03-17T04:18:35.835Z,32.30
2018-03-17T04:21:04.420Z,32.17
2018-03-17T04:23:32.900Z,32.57
2018-03-17T04:26:01.362Z,31.77
2018-03-17T04:28:29.874Z,31.10
2018-03-17T04:30:58.346Z,30.50
2018-03-17T04:33:26.863Z,29.40
2018-03-17T04:35:55.322Z,29.77
2018-03-17T04:38:23.813Z,29.13
2018-03-17T04:40:52.311Z,27.77
2018-03-17T04:43:20.769Z,27.70
2018-03-17T04:45:49.265Z,28.83
2018-03-17T04:48:17.725Z,29.63
2018-03-17T04:50:46.182Z,29.53
2018-03-17T04:53:14.674Z,28.83
2018-03-17T04:55:43.130Z,28.50
2018-03-17T04:58:11.634Z,30.47
2018-03-17T05:00:40.142Z,28.27
2018-03-17T05:03:08.602Z,28.53
2018-03-17T05:05:37.078Z,27.87
2018-03-17T05:08:05.565Z,26.73
2018-03-17T05:10:34.034Z,26.90
2018-03-17T05:13:02.549Z,27.60
2018-03-17T05:15:31.050Z,26.17
2018-03-17T05:17:59.541Z,26.77
2018-03-17T05:20:27.996Z,28.27
2018-03-17T05:22:56.525Z,29.63
2018-03-17T05:25:25.019Z,28.57
2018-03-17T05:27:53.474Z,29.03
2018-03-17T05:30:21.961Z,29.27
2018-03-17T05:32:50.425Z,29.10
2018-03-17T05:35:18.934Z,29.37
2018-03-17T05:37:47.434Z,28.43
2018-03-17T05:40:15.957Z,29.43
2018-03-17T05:42:44.449Z,30.33
2018-03-17T05:45:12.983Z,28.83
2018-03-17T05:47:41.433Z,27.97
2018-03-17T05:50:09.888Z,29.20
2018-03-17T05:52:38.412Z,29.83
2018-03-17T05:55:06.887Z,26.93
2018-03-17T05:57:35.381Z,25.40
2018-03-17T06:00:03.874Z,27.30
2018-03-17T06:02:32.389Z,27.73
2018-03-17T06:05:00.890Z,30.77
2018-03-17T06:07:29.422Z,30.37
2018-03-17T06:09:57.896Z,30.30
2018-03-17T06:12:26.361Z,29.50
2018-03-17T06:15:12.134Z,31.00
2018-03-17T06:17:45.437Z,31.40
2018-03-17T06:20:13.914Z,30.73
2018-03-17T06:22:42.464Z,30.33
2018-03-17T06:25:10.942Z,30.10
2018-03-17T06:27:39.410Z,28.50
2018-03-17T06:30:07.910Z,29.30
2018-03-17T06:32:36.417Z,29.90
2018-03-17T06:35:04.886Z,30.03
2018-03-17T06:37:33.398Z,29.17
2018-03-17T06:40:01.868Z,27.53
2018-03-17T06:42:30.394Z,26.37
2018-03-17T06:44:58.891Z,26.30
2018-03-17T06:47:27.354Z,27.60
2018-03-17T06:49:55.916Z,27.60
2018-03-17T06:52:24.358Z,27.93
2018-03-17T06:54:52.819Z,29.43
2018-03-17T06:57:21.346Z,24.60
2018-03-17T06:59:49.841Z,24.87
2018-03-17T07:02:18.311Z,25.63
2018-03-17T07:04:46.818Z,25.40
2018-03-17T07:07:15.331Z,26.37
2018-03-17T07:09:43.823Z,27.83
2018-03-17T07:12:12.322Z,26.70
2018-03-17T07:14:40.850Z,26.10
2018-03-17T07:17:09.386Z,26.17
2018-03-17T07:19:37.895Z,25.40
2018-03-17T07:22:06.394Z,25.83
2018-03-17T07:24:34.898Z,25.73
2018-03-17T07:27:03.362Z,25.30
2018-03-17T07:29:31.862Z,23.50
2018-03-17T07:32:00.330Z,24.20
2018-03-17T07:34:28.794Z,24.60
2018-03-17T07:36:57.302Z,24.10
2018-03-17T07:39:25.767Z,24.57
2018-03-17T07:41:54.274Z,24.27
2018-03-17T07:44:22.811Z,22.87
2018-03-17T07:46:51.312Z,23.60
2018-03-17T07:49:19.774Z,23.37
2018-03-17T07:51:48.287Z,23.13
2018-03-17T07:54:16.768Z,26.13
2018-03-17T07:56:45.274Z,27.00
2018-03-17T07:59:13.738Z,28.40
2018-03-17T08:01:42.238Z,28.33
2018-03-17T08:04:10.753Z,27.83
2018-03-17T08:06:39.250Z,28.00
2018-03-17T08:09:07.734Z,27.10
2018-03-17T08:11:36.219Z,26.67
2018-03-17T08:14:04.721Z,23.93
2018-03-17T08:16:33.218Z,22.33
2018-03-17T08:19:01.722Z,20.57
2018-03-17T08:21:30.185Z,20.07
2018-03-17T08:23:58.693Z,22.13
2018-03-17T08:26:27.190Z,16.87
2018-03-17T08:28:55.682Z,15.37
2018-03-17T08:31:24.183Z,15.53
2018-03-17T08:33:52.686Z,15.80
2018-03-17T08:36:21.190Z,16.20
2018-03-17T08:38:49.699Z,18.47
2018-03-17T08:41:18.165Z,18.13
2018-03-17T08:43:46.662Z,18.37
2018-03-17T08:46:15.126Z,17.97
2018-03-17T08:48:43.638Z,18.80
2018-03-17T08:51:12.101Z,17.10
2018-03-17T08:53:40.597Z,17.27
2018-03-17T08:56:09.102Z,14.73
2018-03-17T08:58:37.572Z,14.90
2018-03-17T09:01:06.093Z,14.70
2018-03-17T09:03:34.568Z,17.30
2018-03-17T09:06:03.109Z,18.30
2018-03-17T09:08:31.566Z,17.57
2018-03-17T09:11:00.067Z,18.83
2018-03-17T09:13:28.563Z,18.27
2018-03-17T09:15:57.026Z,18.43
2018-03-17T09:18:25.526Z,18.67
2018-03-17T09:20:53.990Z,17.13
2018-03-17T09:23:22.450Z,18.13
2018-03-17T09:25:50.898Z,18.97
2018-03-17T09:28:19.398Z,19.17
2018-03-17T09:30:47.867Z,20.10
2018-03-17T09:33:16.374Z,20.67
2018-03-17T09:35:44.846Z,20.20
2018-03-17T09:38:13.342Z,20.87
2018-03-17T09:40:41.853Z,21.57
2018-03-17T09:43:10.358Z,21.13
2018-03-17T09:45:38.823Z,21.70
2018-03-17T09:48:07.343Z,22.90
2018-03-17T09:50:35.842Z,22.57
2018-03-17T09:53:04.338Z,23.37
2018-03-17T09:55:32.830Z,23.90
2018-03-17T09:58:01.290Z,23.97
2018-03-17T10:00:29.794Z,24.57
2018-03-17T10:02:58.254Z,25.13
2018-03-17T10:05:26.753Z,24.60
2018-03-17T10:07:55.214Z,25.93
2018-03-17T10:10:23.727Z,24.60
2018-03-17T10:12:52.235Z,23.80
2018-03-17T10:15:20.702Z,24.03
2018-03-17T10:17:49.202Z,21.57
2018-03-17T10:20:17.662Z,22.60
2018-03-17T10:22:46.154Z,22.43
2018-03-17T10:25:14.622Z,21.50
2018-03-17T10:27:43.128Z,18.60
2018-03-17T10:30:11.626Z,17.87
2018-03-17T10:32:40.082Z,16.03
2018-03-17T10:35:08.586Z,12.07
2018-03-17T10:37:37.050Z,10.40
2018-03-17T10:40:05.554Z,10.93
2018-03-17T10:42:34.046Z,11.20
2018-03-17T10:45:02.566Z,11.70
2018-03-17T10:47:31.032Z,11.60
2018-03-17T10:49:59.548Z,11.37
2018-03-17T10:52:28.052Z,10.53
2018-03-17T10:54:56.548Z,10.00
2018-03-17T10:57:25.073Z,10.37
2018-03-17T10:59:53.598Z,10.40
2018-03-17T11:02:22.086Z,11.10
2018-03-17T11:04:59.427Z,10.60
2018-03-17T11:07:27.905Z,10.50
2018-03-17T11:09:56.368Z,9.87
2018-03-17T11:12:24.878Z,9.70
2018-03-17T11:14:53.350Z,8.93
2018-03-17T11:17:21.842Z,9.20
2018-03-17T11:19:50.338Z,10.43
2018-03-17T11:22:18.800Z,9.13
2018-03-17T11:24:47.299Z,8.83
2018-03-17T11:27:15.754Z,9.00
2018-03-17T11:29:44.246Z,8.30
2018-03-17T11:32:12.702Z,9.07
2018-03-17T11:34:41.198Z,8.70
2018-03-17T11:37:09.650Z,8.77
2018-03-17T11:39:38.158Z,9.10
2018-03-17T11:42:06.614Z,9.13
2018-03-17T11:44:35.114Z,10.10
2018-03-17T11:47:03.594Z,9.87
2018-03-17T11:49:32.102Z,9.57
2018-03-17T11:52:00.579Z,9.93
2018-03-17T11:54:29.054Z,9.83
2018-03-17T11:56:57.548Z,9.40
2018-03-17T11:59:26.025Z,10.10
2018-03-17T12:01:54.522Z,9.67
2018-03-17T12:04:22.978Z,10.20
2018-03-17T12:06:51.479Z,10.03
2018-03-17T12:09:19.970Z,9.73
2018-03-17T12:11:48.461Z,10.13
2018-03-17T12:14:17.008Z,9.50
2018-03-17T12:16:45.458Z,8.67
2018-03-17T12:19:13.950Z,9.20
2018-03-17T12:21:42.430Z,9.40
2018-03-17T12:24:10.930Z,10.53
2018-03-17T12:26:39.391Z,9.73
2018-03-17T12:29:07.890Z,9.57
2018-03-17T12:31:36.350Z,10.00
2018-03-17T12:34:04.810Z,10.43
2018-03-17T12:36:33.310Z,9.90
2018-03-17T12:39:01.770Z,9.73
2018-03-17T12:41:30.318Z,8.67
2018-03-17T12:43:58.779Z,8.60
2018-03-17T12:46:27.266Z,8.83
2018-03-17T12:48:55.767Z,7.77
2018-03-17T12:51:24.262Z,9.10
2018-03-17T12:53:52.736Z,6.47
2018-03-17T12:56:21.228Z,5.47
2018-03-17T12:58:49.731Z,5.33
2018-03-17T13:01:18.242Z,5.87
2018-03-17T13:03:46.744Z,4.87
2018-03-17T13:06:15.241Z,5.60
2018-03-17T13:08:43.714Z,4.77
2018-03-17T13:11:12.206Z,5.13
2018-03-17T13:13:40.667Z,5.33
2018-03-17T13:16:09.158Z,4.60
2018-03-17T13:18:37.615Z,5.43
2018-03-17T13:21:06.166Z,5.27
2018-03-17T13:23:34.658Z,4.90
2018-03-17T13:26:03.174Z,5.50
2018-03-17T13:28:31.705Z,5.73
2018-03-17T13:31:00.163Z,4.93
2018-03-17T13:33:28.646Z,5.10
2018-03-17T13:36:08.755Z,4.80
2018-03-17T13:38:37.199Z,5.03
2018-03-17T13:41:05.774Z,4.10
2018-03-17T13:43:34.236Z,5.10
2018-03-17T13:46:02.686Z,4.57
2018-03-17T13:48:31.198Z,4.27
2018-03-17T13:50:59.674Z,4.73
2018-03-17T13:53:28.166Z,5.30
2018-03-17T13:55:56.654Z,4.30
2018-03-17T13:58:25.106Z,5.10
2018-03-17T14:00:53.634Z,4.70
2018-03-17T14:03:22.122Z,4.63
2018-03-17T14:05:50.671Z,4.50
2018-03-17T14:08:19.133Z,4.30
2018-03-17T14:10:47.635Z,4.40
2018-03-17T14:13:16.138Z,4.30
2018-03-17T14:15:44.637Z,4.37
2018-03-17T14:18:13.094Z,4.23
2018-03-17T14:20:41.554Z,4.03
2018-03-17T14:23:10.158Z,4.63
2018-03-17T14:25:38.614Z,4.67
2018-03-17T14:28:07.106Z,4.70
2018-03-17T14:30:35.635Z,4.87
2018-03-17T14:33:04.094Z,4.70
2018-03-17T14:35:32.589Z,4.40
2018-03-17T14:38:01.091Z,4.10
2018-03-17T14:40:29.554Z,4.80
2018-03-17T14:42:58.058Z,5.13
2018-03-17T14:45:26.570Z,3.97
2018-03-17T14:47:55.121Z,4.70
2018-03-17T14:50:23.574Z,4.57
2018-03-17T14:52:52.030Z,4.70
2018-03-17T14:55:20.519Z,4.93
2018-03-17T14:57:48.974Z,4.50
2018-03-17T15:00:17.466Z,4.73
2018-03-17T15:02:45.958Z,4.83
2018-03-17T15:05:14.413Z,4.47
2018-03-17T15:07:42.926Z,4.60
2018-03-17T15:10:11.383Z,4.10
2018-03-17T15:12:39.904Z,4.50
2018-03-17T15:15:08.374Z,4.53
2018-03-17T15:17:36.882Z,5.00
2018-03-17T15:20:05.353Z,4.80
2018-03-17T15:22:33.850Z,4.87
2018-03-17T15:25:02.335Z,3.93
2018-03-17T15:27:30.786Z,4.73
2018-03-17T15:29:59.283Z,4.03
2018-03-17T15:32:27.774Z,4.90
2018-03-17T15:34:56.275Z,5.00
2018-03-17T15:37:24.766Z,4.97
2018-03-17T15:39:53.254Z,5.77
2018-03-17T15:42:21.746Z,4.50
2018-03-17T15:44:50.238Z,4.97
2018-03-17T15:47:18.698Z,4.80
2018-03-17T15:49:47.206Z,5.00
2018-03-17T15:52:15.665Z,5.67
2018-03-17T15:54:44.162Z,5.10
2018-03-17T15:57:12.640Z,5.27
2018-03-17T15:59:41.169Z,5.03
2018-03-17T16:02:09.663Z,5.50
2018-03-17T16:04:38.118Z,5.47
2018-03-17T16:07:06.606Z,4.60
2018-03-17T16:09:35.078Z,6.20
2018-03-17T16:12:03.598Z,5.33
2018-03-17T16:14:32.070Z,5.13
2018-03-17T16:17:00.579Z,5.57
2018-03-17T16:19:29.038Z,6.03
2018-03-17T16:21:57.527Z,6.83
2018-03-17T16:24:25.982Z,5.40
2018-03-17T16:26:54.474Z,6.37
2018-03-17T16:29:22.970Z,6.50
2018-03-17T16:31:51.441Z,6.03
2018-03-17T16:34:19.938Z,5.90
2018-03-17T16:36:48.393Z,5.60
2018-03-17T16:39:16.902Z,5.37
2018-03-17T16:41:45.430Z,5.93
2018-03-17T16:44:13.897Z,6.30
2018-03-17T16:46:42.409Z,6.20
2018-03-17T16:49:10.862Z,5.40
2018-03-17T16:51:39.374Z,7.03
2018-03-17T16:54:08.760Z,5.97
2018-03-17T16:56:37.250Z,6.30
2018-03-17T16:59:05.746Z,5.97
2018-03-17T17:01:34.207Z,6.20
2018-03-17T17:04:02.707Z,6.87
2018-03-17T17:06:31.158Z,6.67
2018-03-17T17:08:59.662Z,8.33
2018-03-17T17:11:28.137Z,7.33
2018-03-17T17:13:56.640Z,6.60
2018-03-17T17:16:25.130Z,6.57
2018-03-17T17:18:53.583Z,6.97
2018-03-17T17:21:22.078Z,7.43
2018-03-17T17:23:50.542Z,7.90
2018-03-17T17:26:19.033Z,8.60
2018-03-17T17:28:47.490Z,9.60
2018-03-17T17:31:15.981Z,8.87
2018-03-17T17:33:44.474Z,15.37
2018-03-17T17:36:12.934Z,14.70
2018-03-17T17:38:41.462Z,13.30
2018-03-17T17:41:09.982Z,11.70
2018-03-17T17:43:38.485Z,14.90
2018-03-17T17:46:06.945Z,8.53
2018-03-17T17:48:35.495Z,6.87
2018-03-17T17:51:03.987Z,7.00
2018-03-17T17:53:32.486Z,7.30
2018-03-17T17:56:00.937Z,7.23
2018-03-17T17:58:29.434Z,6.63
2018-03-17T18:00:57.945Z,6.53
2018-03-17T18:03:26.403Z,7.30
2018-03-17T18:05:54.898Z,6.70
2018-03-17T18:08:23.369Z,6.53
2018-03-17T18:10:51.874Z,6.90
2018-03-17T18:13:20.325Z,6.57
2018-03-17T18:15:48.856Z,6.73
2018-03-17T18:18:17.322Z,6.37
2018-03-17T18:20:45.814Z,6.83
2018-03-17T18:23:14.315Z,6.77
2018-03-17T18:25:43.590Z,6.77
2018-03-17T18:28:12.050Z,5.43
2018-03-17T18:30:40.506Z,6.33
2018-03-17T18:33:08.990Z,6.53
2018-03-17T18:35:37.493Z,7.07
2018-03-17T18:38:05.984Z,7.43
2018-03-17T18:40:34.482Z,7.23
2018-03-17T18:43:03.018Z,6.70
2018-03-17T18:45:31.473Z,7.37
2018-03-17T18:47:59.970Z,6.43
2018-03-17T18:50:28.470Z,7.10
2018-03-17T18:52:56.925Z,8.43
2018-03-17T18:55:25.378Z,6.27
2018-03-17T18:57:53.870Z,6.63
2018-03-17T19:00:22.421Z,6.73
2018-03-17T19:02:50.907Z,6.50
2018-03-17T19:05:19.402Z,6.97
2018-03-17T19:07:47.859Z,6.93
2018-03-17T19:10:16.350Z,7.73
2018-03-17T19:12:44.875Z,7.40
2018-03-17T19:15:13.342Z,7.70
2018-03-17T19:17:41.838Z,7.93
2018-03-17T19:20:10.306Z,7.77
2018-03-17T19:22:38.762Z,8.00
2018-03-17T19:25:07.249Z,7.77
2018-03-17T19:27:35.738Z,7.87
2018-03-17T19:30:04.245Z,8.20
2018-03-17T19:32:32.755Z,8.47
2018-03-17T19:35:01.246Z,8.43
2018-03-17T19:37:29.731Z,8.33
2018-03-17T19:39:58.226Z,6.67
2018-03-17T19:42:26.700Z,6.47
2018-03-17T19:44:55.216Z,6.53
2018-03-17T19:47:23.711Z,6.90
2018-03-17T19:49:52.194Z,7.00
2018-03-17T19:52:20.686Z,5.57
2018-03-17T19:54:49.158Z,5.80
2018-03-17T19:57:17.697Z,6.80
2018-03-17T19:59:46.162Z,5.27
2018-03-17T20:02:14.678Z,5.57
2018-03-17T20:04:43.146Z,5.50
2018-03-17T20:07:11.649Z,5.00
2018-03-17T20:09:40.106Z,5.10
2018-03-17T20:12:08.562Z,5.10
2018-03-17T20:14:37.068Z,5.00
2018-03-17T20:17:05.532Z,5.13
2018-03-17T20:19:34.044Z,4.90
2018-03-17T20:22:02.536Z,5.30
2018-03-17T20:24:31.020Z,5.50
2018-03-17T20:26:59.526Z,5.50
2018-03-17T20:29:28.028Z,5.27
2018-03-17T20:31:56.518Z,5.80
2018-03-17T20:34:25.044Z,6.23
2018-03-17T20:36:53.516Z,6.60
2018-03-17T20:39:21.971Z,7.63
2018-03-17T20:41:50.475Z,6.60
2018-03-17T20:44:18.937Z,6.47
2018-03-17T20:46:47.410Z,6.83
2018-03-17T20:49:15.917Z,8.13
2018-03-17T20:51:44.388Z,7.73
2018-03-17T20:54:12.846Z,7.87
2018-03-17T20:56:41.348Z,7.17
2018-03-17T20:59:09.810Z,8.20
2018-03-17T21:01:38.307Z,7.43
2018-03-17T21:04:06.806Z,7.50
2018-03-17T21:06:35.266Z,7.13
2018-03-17T21:09:03.815Z,6.90
2018-03-17T21:11:32.335Z,6.57
2018-03-17T21:14:00.830Z,5.97
2018-03-17T21:16:29.307Z,6.70
2018-03-17T21:18:57.810Z,6.00
2018-03-17T21:21:26.281Z,5.70
2018-03-17T21:23:54.742Z,5.27
2018-03-17T21:26:23.243Z,5.40
2018-03-17T21:28:51.730Z,7.33
2018-03-17T21:31:20.227Z,5.90
2018-03-17T21:33:48.689Z,5.47
2018-03-17T21:36:17.204Z,5.23
2018-03-17T21:38:45.672Z,5.20
2018-03-17T21:41:14.203Z,5.13
2018-03-17T21:43:42.658Z,6.37
2018-03-17T21:46:11.122Z,6.07
2018-03-17T21:48:39.618Z,6.00
2018-03-17T21:51:08.118Z,5.60
2018-03-17T21:53:36.574Z,5.90
2018-03-17T21:56:05.055Z,6.47
2018-03-17T21:58:33.555Z,5.30
2018-03-17T22:01:02.070Z,5.57
2018-03-17T22:03:30.586Z,6.70
2018-03-17T22:05:59.037Z,5.07
2018-03-17T22:08:27.529Z,5.13
2018-03-17T22:10:55.982Z,5.90
2018-03-17T22:13:24.516Z,6.10
2018-03-17T22:15:52.984Z,5.30
2018-03-17T22:18:21.518Z,6.23
2018-03-17T22:20:49.985Z,5.40
2018-03-17T22:23:18.486Z,5.60
2018-03-17T22:25:46.947Z,5.13
2018-03-17T22:28:15.678Z,4.90
2018-03-17T22:30:44.166Z,5.53
2018-03-17T22:33:12.628Z,5.47
2018-03-17T22:35:41.126Z,5.70
2018-03-17T22:38:09.616Z,5.33
2018-03-17T22:40:38.122Z,6.17
2018-03-17T22:43:06.605Z,5.30
2018-03-17T22:45:35.097Z,5.80
2018-03-17T22:48:03.549Z,5.73
2018-03-17T22:50:32.042Z,6.23
2018-03-17T22:53:00.501Z,6.67
2018-03-17T22:55:28.993Z,5.70
2018-03-17T22:57:57.450Z,5.50
2018-03-17T23:00:25.942Z,5.67
2018-03-17T23:02:54.438Z,5.07
2018-03-17T23:05:22.934Z,5.20
2018-03-17T23:07:51.398Z,6.17
2018-03-17T23:10:19.875Z,5.60
2018-03-17T23:12:48.326Z,5.20
2018-03-17T23:15:16.833Z,5.43
2018-03-17T23:17:45.338Z,5.77
2018-03-17T23:20:13.813Z,4.77
2018-03-17T23:22:42.320Z,5.73
2018-03-17T23:25:10.778Z,5.73
2018-03-17T23:27:39.278Z,5.30
2018-03-17T23:30:07.762Z,5.60
2018-03-17T23:32:36.278Z,5.20
2018-03-17T23:35:04.741Z,5.43
2018-03-17T23:37:33.244Z,4.93
2018-03-17T23:40:01.730Z,5.40
2018-03-17T23:42:30.230Z,5.20
2018-03-17T23:44:58.709Z,5.10
2018-03-17T23:47:27.177Z,4.67
2018-03-17T23:49:55.734Z,4.97
2018-03-17T23:52:24.197Z,5.00
2018-03-17T23:54:52.749Z,5.50
2018-03-17T23:57:21.259Z,4.97
2018-03-17T23:59:49.752Z,5.73
